sensor_id;sensor_type;location;lat;lon;timestamp;pressure;altitude;pressure_sealevel;temperature;humidity
31681;BME280;18281;51.364;9.566;2022-07-23T00:00:16;100120.66;;;14.23;100.00
31681;BME280;18281;51.364;9.566;2022-07-23T00:02:42;100127.72;;;14.10;100.00
31681;BME280;18281;51.364;9.566;2022-07-23T00:05:08;100128.59;;;14.49;100.00
31681;BME280;18281;51.364;9.566;2022-07-23T00:07:33;100136.41;;;13.59;100.00
31681;BME280;18281;51.364;9.566;2022-07-23T00:09:59;100144.69;;;13.67;100.00
31681;BME280;18281;51.364;9.566;2022-07-23T00:12:24;100145.34;;;13.84;100.00
31681;BME280;18281;51.364;9.566;2022-07-23T00:14:50;100141.47;;;13.89;100.00
31681;BME280;18281;51.364;9.566;2022-07-23T00:17:16;100126.00;;;13.83;100.00
31681;BME280;18281;51.364;9.566;2022-07-23T00:19:41;100141.31;;;13.38;100.00
31681;BME280;18281;51.364;9.566;2022-07-23T00:22:06;100133.88;;;13.98;100.00
31681;BME280;18281;51.364;9.566;2022-07-23T00:24:32;100135.25;;;14.16;100.00
31681;BME280;18281;51.364;9.566;2022-07-23T00:26:57;100136.53;;;13.70;100.00
31681;BME280;18281;51.364;9.566;2022-07-23T00:29:22;100143.06;;;14.05;100.00
31681;BME280;18281;51.364;9.566;2022-07-23T00:31:48;100128.03;;;13.92;100.00
31681;BME280;18281;51.364;9.566;2022-07-23T00:34:13;100112.97;;;13.95;100.00
31681;BME280;18281;51.364;9.566;2022-07-23T00:36:39;100127.16;;;13.79;100.00
31681;BME280;18281;51.364;9.566;2022-07-23T00:39:04;100132.78;;;13.87;100.00
31681;BME280;18281;51.364;9.566;2022-07-23T00:41:30;100128.25;;;13.89;100.00
31681;BME280;18281;51.364;9.566;2022-07-23T00:43:55;100140.94;;;13.97;100.00
31681;BME280;18281;51.364;9.566;2022-07-23T00:46:22;100138.56;;;13.80;100.00
31681;BME280;18281;51.364;9.566;2022-07-23T00:48:48;100128.25;;;13.89;100.00
31681;BME280;18281;51.364;9.566;2022-07-23T00:51:17;100116.34;;;13.56;100.00
31681;BME280;18281;51.364;9.566;2022-07-23T00:53:43;100109.63;;;13.65;100.00
31681;BME280;18281;51.364;9.566;2022-07-23T00:56:10;100119.66;;;13.73;100.00
31681;BME280;18281;51.364;9.566;2022-07-23T00:58:35;100142.53;;;13.32;100.00
31681;BME280;18281;51.364;9.566;2022-07-23T01:01:01;100132.22;;;13.29;100.00
31681;BME280;18281;51.364;9.566;2022-07-23T01:03:27;100120.47;;;13.48;100.00
31681;BME280;18281;51.364;9.566;2022-07-23T01:05:53;100116.69;;;13.65;100.00
31681;BME280;18281;51.364;9.566;2022-07-23T01:08:19;100127.66;;;13.58;100.00
31681;BME280;18281;51.364;9.566;2022-07-23T01:10:46;100128.13;;;13.78;100.00
31681;BME280;18281;51.364;9.566;2022-07-23T01:13:13;100125.00;;;13.18;100.00
31681;BME280;18281;51.364;9.566;2022-07-23T01:15:38;100122.88;;;13.51;100.00
31681;BME280;18281;51.364;9.566;2022-07-23T01:18:06;100117.13;;;13.84;100.00
31681;BME280;18281;51.364;9.566;2022-07-23T01:20:32;100122.03;;;13.50;100.00
31681;BME280;18281;51.364;9.566;2022-07-23T01:22:58;100116.78;;;13.63;100.00
31681;BME280;18281;51.364;9.566;2022-07-23T01:25:24;100111.19;;;13.55;100.00
31681;BME280;18281;51.364;9.566;2022-07-23T01:27:52;100108.38;;;13.84;100.00
31681;BME280;18281;51.364;9.566;2022-07-23T01:30:18;100111.13;;;13.82;100.00
31681;BME280;18281;51.364;9.566;2022-07-23T01:32:44;100124.81;;;13.62;100.00
31681;BME280;18281;51.364;9.566;2022-07-23T01:35:09;100129.03;;;13.64;100.00
31681;BME280;18281;51.364;9.566;2022-07-23T01:37:36;100131.91;;;13.74;100.00
31681;BME280;18281;51.364;9.566;2022-07-23T01:40:01;100133.16;;;13.55;100.00
31681;BME280;18281;51.364;9.566;2022-07-23T01:42:27;100126.16;;;13.54;100.00
31681;BME280;18281;51.364;9.566;2022-07-23T01:44:53;100125.56;;;13.64;100.00
31681;BME280;18281;51.364;9.566;2022-07-23T01:47:18;100129.81;;;13.39;100.00
31681;BME280;18281;51.364;9.566;2022-07-23T01:49:43;100119.63;;;13.60;100.00
31681;BME280;18281;51.364;9.566;2022-07-23T01:52:09;100117.50;;;13.52;100.00
31681;BME280;18281;51.364;9.566;2022-07-23T01:54:37;100141.72;;;13.72;100.00
31681;BME280;18281;51.364;9.566;2022-07-23T01:57:03;100155.13;;;13.69;100.00
31681;BME280;18281;51.364;9.566;2022-07-23T01:59:30;100172.25;;;13.49;100.00
31681;BME280;18281;51.364;9.566;2022-07-23T02:01:56;100171.06;;;13.13;100.00
31681;BME280;18281;51.364;9.566;2022-07-23T02:04:22;100141.91;;;13.29;100.00
31681;BME280;18281;51.364;9.566;2022-07-23T02:06:49;100145.97;;;13.20;100.00
31681;BME280;18281;51.364;9.566;2022-07-23T02:09:14;100147.66;;;13.48;100.00
31681;BME280;18281;51.364;9.566;2022-07-23T02:11:40;100151.81;;;13.25;100.00
31681;BME280;18281;51.364;9.566;2022-07-23T02:14:05;100153.59;;;13.52;100.00
31681;BME280;18281;51.364;9.566;2022-07-23T02:16:31;100129.09;;;13.50;100.00
31681;BME280;18281;51.364;9.566;2022-07-23T02:18:57;100122.50;;;13.30;100.00
31681;BME280;18281;51.364;9.566;2022-07-23T02:21:22;100125.72;;;13.20;100.00
31681;BME280;18281;51.364;9.566;2022-07-23T02:23:48;100133.19;;;13.14;100.00
31681;BME280;18281;51.364;9.566;2022-07-23T02:26:13;100135.22;;;13.50;100.00
31681;BME280;18281;51.364;9.566;2022-07-23T02:28:39;100138.88;;;13.35;100.00
31681;BME280;18281;51.364;9.566;2022-07-23T02:31:04;100145.84;;;13.36;100.00
31681;BME280;18281;51.364;9.566;2022-07-23T02:33:31;100155.34;;;13.38;100.00
31681;BME280;18281;51.364;9.566;2022-07-23T02:35:57;100148.34;;;13.24;100.00
31681;BME280;18281;51.364;9.566;2022-07-23T02:38:22;100146.91;;;13.19;100.00
31681;BME280;18281;51.364;9.566;2022-07-23T02:40:47;100142.66;;;13.31;100.00
31681;BME280;18281;51.364;9.566;2022-07-23T02:43:13;100146.97;;;13.32;100.00
31681;BME280;18281;51.364;9.566;2022-07-23T02:45:38;100146.19;;;13.44;100.00
31681;BME280;18281;51.364;9.566;2022-07-23T02:48:04;100154.00;;;13.18;100.00
31681;BME280;18281;51.364;9.566;2022-07-23T02:50:29;100156.47;;;13.07;100.00
31681;BME280;18281;51.364;9.566;2022-07-23T02:52:55;100163.78;;;13.16;100.00
31681;BME280;18281;51.364;9.566;2022-07-23T02:55:20;100168.88;;;13.19;100.00
31681;BME280;18281;51.364;9.566;2022-07-23T02:57:45;100166.97;;;13.21;100.00
31681;BME280;18281;51.364;9.566;2022-07-23T03:00:11;100161.41;;;13.53;100.00
31681;BME280;18281;51.364;9.566;2022-07-23T03:02:37;100153.31;;;13.29;100.00
31681;BME280;18281;51.364;9.566;2022-07-23T03:05:03;100159.19;;;13.47;100.00
31681;BME280;18281;51.364;9.566;2022-07-23T03:07:28;100152.84;;;13.50;100.00
31681;BME280;18281;51.364;9.566;2022-07-23T03:09:54;100150.19;;;13.50;100.00
31681;BME280;18281;51.364;9.566;2022-07-23T03:12:19;100160.50;;;13.40;100.00
31681;BME280;18281;51.364;9.566;2022-07-23T03:14:44;100151.28;;;13.47;100.00
31681;BME280;18281;51.364;9.566;2022-07-23T03:17:10;100148.69;;;13.33;100.00
31681;BME280;18281;51.364;9.566;2022-07-23T03:19:35;100150.53;;;13.18;100.00
31681;BME280;18281;51.364;9.566;2022-07-23T03:22:02;100140.50;;;13.50;100.00
31681;BME280;18281;51.364;9.566;2022-07-23T03:24:28;100144.09;;;13.49;100.00
31681;BME280;18281;51.364;9.566;2022-07-23T03:27:12;100152.91;;;13.35;100.00
31681;BME280;18281;51.364;9.566;2022-07-23T03:29:37;100158.03;;;13.51;100.00
31681;BME280;18281;51.364;9.566;2022-07-23T03:32:03;100155.84;;;13.31;100.00
31681;BME280;18281;51.364;9.566;2022-07-23T03:34:29;100150.97;;;13.24;100.00
31681;BME280;18281;51.364;9.566;2022-07-23T03:36:54;100153.63;;;13.24;100.00
31681;BME280;18281;51.364;9.566;2022-07-23T03:39:20;100138.81;;;13.49;100.00
31681;BME280;18281;51.364;9.566;2022-07-23T03:41:45;100143.28;;;13.07;100.00
31681;BME280;18281;51.364;9.566;2022-07-23T03:44:11;100141.09;;;13.41;100.00
31681;BME280;18281;51.364;9.566;2022-07-23T03:46:36;100128.59;;;13.45;100.00
31681;BME280;18281;51.364;9.566;2022-07-23T03:49:01;100140.88;;;13.31;100.00
31681;BME280;18281;51.364;9.566;2022-07-23T03:51:27;100152.50;;;13.14;100.00
31681;BME280;18281;51.364;9.566;2022-07-23T03:53:52;100141.47;;;13.22;100.00
31681;BME280;18281;51.364;9.566;2022-07-23T03:56:18;100137.78;;;13.24;100.00
31681;BME280;18281;51.364;9.566;2022-07-23T03:58:43;100131.16;;;13.32;100.00
31681;BME280;18281;51.364;9.566;2022-07-23T04:01:09;100133.53;;;13.49;100.00
31681;BME280;18281;51.364;9.566;2022-07-23T04:03:34;100138.56;;;13.39;100.00
31681;BME280;18281;51.364;9.566;2022-07-23T04:05:59;100139.34;;;13.27;100.00
31681;BME280;18281;51.364;9.566;2022-07-23T04:08:25;100139.66;;;13.50;100.00
31681;BME280;18281;51.364;9.566;2022-07-23T04:10:50;100141.91;;;13.29;100.00
31681;BME280;18281;51.364;9.566;2022-07-23T04:13:16;100153.81;;;13.49;100.00
31681;BME280;18281;51.364;9.566;2022-07-23T04:15:41;100151.28;;;13.47;100.00
31681;BME280;18281;51.364;9.566;2022-07-23T04:18:06;100145.69;;;13.24;100.00
31681;BME280;18281;51.364;9.566;2022-07-23T04:20:33;100158.69;;;13.28;100.00
31681;BME280;18281;51.364;9.566;2022-07-23T04:22:58;100152.22;;;13.46;100.00
31681;BME280;18281;51.364;9.566;2022-07-23T04:25:23;100163.84;;;13.29;100.00
31681;BME280;18281;51.364;9.566;2022-07-23T04:27:49;100159.50;;;13.28;100.00
31681;BME280;18281;51.364;9.566;2022-07-23T04:30:14;100192.34;;;12.37;100.00
31681;BME280;18281;51.364;9.566;2022-07-23T04:32:40;100184.13;;;12.85;100.00
31681;BME280;18281;51.364;9.566;2022-07-23T04:35:05;100183.56;;;13.09;100.00
31681;BME280;18281;51.364;9.566;2022-07-23T04:37:31;100170.78;;;13.03;100.00
31681;BME280;18281;51.364;9.566;2022-07-23T04:39:56;100173.56;;;13.29;100.00
31681;BME280;18281;51.364;9.566;2022-07-23T04:42:21;100165.94;;;13.24;100.00
31681;BME280;18281;51.364;9.566;2022-07-23T04:44:47;100158.09;;;13.37;100.00
31681;BME280;18281;51.364;9.566;2022-07-23T04:47:12;100152.53;;;13.00;100.00
31681;BME280;18281;51.364;9.566;2022-07-23T04:49:38;100145.50;;;13.28;100.00
31681;BME280;18281;51.364;9.566;2022-07-23T04:52:03;100142.16;;;13.38;100.00
31681;BME280;18281;51.364;9.566;2022-07-23T04:54:29;100155.53;;;13.08;100.00
31681;BME280;18281;51.364;9.566;2022-07-23T04:56:55;100147.56;;;13.22;100.00
31681;BME280;18281;51.364;9.566;2022-07-23T04:59:20;100150.25;;;13.08;100.00
31681;BME280;18281;51.364;9.566;2022-07-23T05:01:46;100139.19;;;13.43;100.00
31681;BME280;18281;51.364;9.566;2022-07-23T05:04:11;100129.69;;;13.68;100.00
31681;BME280;18281;51.364;9.566;2022-07-23T05:06:37;100145.53;;;13.40;100.00
31681;BME280;18281;51.364;9.566;2022-07-23T05:09:02;100148.53;;;13.62;100.00
31681;BME280;18281;51.364;9.566;2022-07-23T05:11:27;100154.47;;;13.65;100.00
31681;BME280;18281;51.364;9.566;2022-07-23T05:13:53;100154.44;;;13.52;100.00
31681;BME280;18281;51.364;9.566;2022-07-23T05:16:19;100141.94;;;13.69;100.00
31681;BME280;18281;51.364;9.566;2022-07-23T05:18:44;100133.03;;;13.97;100.00
31681;BME280;18281;51.364;9.566;2022-07-23T05:21:09;100129.66;;;14.21;100.00
31681;BME280;18281;51.364;9.566;2022-07-23T05:23:35;100127.53;;;14.39;100.00
31681;BME280;18281;51.364;9.566;2022-07-23T05:26:00;100123.28;;;14.49;100.00
31681;BME280;18281;51.364;9.566;2022-07-23T05:28:25;100117.16;;;14.49;100.00
31681;BME280;18281;51.364;9.566;2022-07-23T05:30:51;100122.66;;;14.58;100.00
31681;BME280;18281;51.364;9.566;2022-07-23T05:33:19;100138.94;;;14.26;100.00
31681;BME280;18281;51.364;9.566;2022-07-23T05:35:44;100135.44;;;14.52;100.00
31681;BME280;18281;51.364;9.566;2022-07-23T05:38:10;100128.53;;;14.62;100.00
31681;BME280;18281;51.364;9.566;2022-07-23T05:40:35;100128.34;;;14.52;100.00
31681;BME280;18281;51.364;9.566;2022-07-23T05:43:01;100119.78;;;14.62;100.00
31681;BME280;18281;51.364;9.566;2022-07-23T05:45:26;100123.59;;;14.57;100.00
31681;BME280;18281;51.364;9.566;2022-07-23T05:47:51;100127.47;;;14.65;100.00
31681;BME280;18281;51.364;9.566;2022-07-23T05:50:17;100133.16;;;14.71;100.00
31681;BME280;18281;51.364;9.566;2022-07-23T05:52:43;100128.13;;;14.81;100.00
31681;BME280;18281;51.364;9.566;2022-07-23T05:55:09;100141.88;;;14.60;100.00
31681;BME280;18281;51.364;9.566;2022-07-23T05:57:35;100144.22;;;14.52;100.00
31681;BME280;18281;51.364;9.566;2022-07-23T06:00:02;100139.75;;;14.66;100.00
31681;BME280;18281;51.364;9.566;2022-07-23T06:02:28;100141.16;;;14.58;100.00
31681;BME280;18281;51.364;9.566;2022-07-23T06:04:54;100147.19;;;14.48;100.00
31681;BME280;18281;51.364;9.566;2022-07-23T06:07:19;100147.16;;;14.60;100.00
31681;BME280;18281;51.364;9.566;2022-07-23T06:09:44;100148.59;;;14.77;100.00
31681;BME280;18281;51.364;9.566;2022-07-23T06:12:12;100153.41;;;14.47;100.00
31681;BME280;18281;51.364;9.566;2022-07-23T06:14:37;100163.34;;;14.43;100.00
31681;BME280;18281;51.364;9.566;2022-07-23T06:17:02;100153.41;;;14.47;100.00
31681;BME280;18281;51.364;9.566;2022-07-23T06:19:28;100158.06;;;14.43;100.00
31681;BME280;18281;51.364;9.566;2022-07-23T06:21:53;100159.00;;;14.16;100.00
31681;BME280;18281;51.364;9.566;2022-07-23T06:24:19;100155.94;;;14.48;100.00
31681;BME280;18281;51.364;9.566;2022-07-23T06:26:44;100168.41;;;14.07;100.00
31681;BME280;18281;51.364;9.566;2022-07-23T06:29:10;100159.53;;;14.60;100.00
31681;BME280;18281;51.364;9.566;2022-07-23T06:31:35;100153.38;;;14.72;100.00
31681;BME280;18281;51.364;9.566;2022-07-23T06:34:01;100150.72;;;14.59;100.00
31681;BME280;18281;51.364;9.566;2022-07-23T06:36:26;100154.78;;;14.52;100.00
31681;BME280;18281;51.364;9.566;2022-07-23T06:38:52;100141.81;;;14.99;100.00
31681;BME280;18281;51.364;9.566;2022-07-23T06:41:17;100151.09;;;15.05;100.00
31681;BME280;18281;51.364;9.566;2022-07-23T06:43:42;100157.19;;;14.81;100.00
31681;BME280;18281;51.364;9.566;2022-07-23T06:46:08;100154.94;;;14.75;100.00
31681;BME280;18281;51.364;9.566;2022-07-23T06:48:33;100142.66;;;15.24;100.00
31681;BME280;18281;51.364;9.566;2022-07-23T06:51:01;100150.31;;;15.40;100.00
31681;BME280;18281;51.364;9.566;2022-07-23T06:53:27;100154.25;;;15.10;100.00
31681;BME280;18281;51.364;9.566;2022-07-23T06:55:52;100153.06;;;15.38;100.00
31681;BME280;18281;51.364;9.566;2022-07-23T06:58:17;100153.97;;;15.50;100.00
31681;BME280;18281;51.364;9.566;2022-07-23T07:00:44;100156.19;;;14.95;100.00
31681;BME280;18281;51.364;9.566;2022-07-23T07:03:10;100167.72;;;14.94;100.00
31681;BME280;18281;51.364;9.566;2022-07-23T07:05:35;100167.53;;;15.21;100.00
31681;BME280;18281;51.364;9.566;2022-07-23T07:08:00;100167.16;;;15.39;100.00
31681;BME280;18281;51.364;9.566;2022-07-23T07:10:26;100170.75;;;15.62;100.00
31681;BME280;18281;51.364;9.566;2022-07-23T07:12:51;100171.53;;;15.75;100.00
31681;BME280;18281;51.364;9.566;2022-07-23T07:15:17;100172.22;;;16.02;100.00
31681;BME280;18281;51.364;9.566;2022-07-23T07:17:42;100178.47;;;16.01;100.00
31681;BME280;18281;51.364;9.566;2022-07-23T07:20:08;100178.00;;;16.07;100.00
31681;BME280;18281;51.364;9.566;2022-07-23T07:22:33;100182.50;;;16.18;100.00
31681;BME280;18281;51.364;9.566;2022-07-23T07:24:59;100188.88;;;15.55;100.00
31681;BME280;18281;51.364;9.566;2022-07-23T07:27:24;100191.53;;;15.55;100.00
31681;BME280;18281;51.364;9.566;2022-07-23T07:29:50;100189.53;;;15.46;100.00
31681;BME280;18281;51.364;9.566;2022-07-23T07:32:15;100197.47;;;15.46;100.00
31681;BME280;18281;51.364;9.566;2022-07-23T07:34:41;100202.25;;;15.17;100.00
31681;BME280;18281;51.364;9.566;2022-07-23T07:37:06;100205.41;;;15.22;100.00
31681;BME280;18281;51.364;9.566;2022-07-23T07:39:31;100201.63;;;15.37;100.00
31681;BME280;18281;51.364;9.566;2022-07-23T07:41:57;100196.56;;;15.71;100.00
31681;BME280;18281;51.364;9.566;2022-07-23T07:44:22;100200.28;;;15.69;100.00
31681;BME280;18281;51.364;9.566;2022-07-23T07:46:47;100195.38;;;15.63;100.00
31681;BME280;18281;51.364;9.566;2022-07-23T07:49:13;100195.00;;;15.80;100.00
31681;BME280;18281;51.364;9.566;2022-07-23T07:51:38;100203.16;;;15.29;100.00
31681;BME280;18281;51.364;9.566;2022-07-23T07:54:04;100207.09;;;15.23;100.00
31681;BME280;18281;51.364;9.566;2022-07-23T07:56:29;100204.31;;;15.62;100.00
31681;BME280;18281;51.364;9.566;2022-07-23T07:58:54;100211.78;;;16.39;100.00
31681;BME280;18281;51.364;9.566;2022-07-23T08:01:20;100209.81;;;16.18;96.15
31681;BME280;18281;51.364;9.566;2022-07-23T08:03:46;100208.94;;;16.76;95.63
31681;BME280;18281;51.364;9.566;2022-07-23T08:06:11;100204.19;;;17.25;93.56
31681;BME280;18281;51.364;9.566;2022-07-23T08:08:36;100210.72;;;17.09;90.79
31681;BME280;18281;51.364;9.566;2022-07-23T08:11:02;100211.34;;;16.90;87.93
31681;BME280;18281;51.364;9.566;2022-07-23T08:13:27;100210.69;;;17.21;87.85
31681;BME280;18281;51.364;9.566;2022-07-23T08:15:53;100207.91;;;17.34;86.06
31681;BME280;18281;51.364;9.566;2022-07-23T08:18:19;100221.47;;;17.08;87.40
31681;BME280;18281;51.364;9.566;2022-07-23T08:20:44;100221.06;;;17.13;85.09
31681;BME280;18281;51.364;9.566;2022-07-23T08:23:10;100213.09;;;17.35;85.50
31681;BME280;18281;51.364;9.566;2022-07-23T08:25:38;100213.38;;;17.65;86.15
31681;BME280;18281;51.364;9.566;2022-07-23T08:28:06;100217.22;;;17.93;85.50
31681;BME280;18281;51.364;9.566;2022-07-23T08:30:32;100209.25;;;18.25;85.23
31681;BME280;18281;51.364;9.566;2022-07-23T08:33:00;100219.28;;;18.43;85.33
31681;BME280;18281;51.364;9.566;2022-07-23T08:37:53;100217.91;;;17.85;83.45
31681;BME280;18281;51.364;9.566;2022-07-23T08:40:19;100225.28;;;17.70;82.93
31681;BME280;18281;51.364;9.566;2022-07-23T08:42:47;100233.50;;;17.79;82.94
31681;BME280;18281;51.364;9.566;2022-07-23T08:45:16;100225.41;;;18.01;80.62
31681;BME280;18281;51.364;9.566;2022-07-23T08:47:43;100220.75;;;17.61;81.81
31681;BME280;18281;51.364;9.566;2022-07-23T08:50:09;100220.81;;;18.03;82.52
31681;BME280;18281;51.364;9.566;2022-07-23T08:52:36;100233.13;;;18.47;82.44
31681;BME280;18281;51.364;9.566;2022-07-23T08:55:02;100224.53;;;18.12;82.93
31681;BME280;18281;51.364;9.566;2022-07-23T08:57:27;100230.03;;;17.67;83.50
31681;BME280;18281;51.364;9.566;2022-07-23T08:59:52;100234.41;;;17.56;84.90
31681;BME280;18281;51.364;9.566;2022-07-23T09:02:18;100226.13;;;18.03;83.35
31681;BME280;18281;51.364;9.566;2022-07-23T09:04:43;100232.31;;;18.46;83.23
31681;BME280;18281;51.364;9.566;2022-07-23T09:07:09;100224.56;;;18.01;82.25
31681;BME280;18281;51.364;9.566;2022-07-23T09:09:34;100223.91;;;17.87;84.21
31681;BME280;18281;51.364;9.566;2022-07-23T09:12:07;100236.47;;;18.39;83.86
31681;BME280;18281;51.364;9.566;2022-07-23T09:14:44;100237.75;;;17.70;83.07
31681;BME280;18281;51.364;9.566;2022-07-23T09:17:17;100231.72;;;18.42;82.33
31681;BME280;18281;51.364;9.566;2022-07-23T09:19:43;100239.06;;;18.29;83.82
31681;BME280;18281;51.364;9.566;2022-07-23T09:22:20;100234.59;;;17.97;82.68
31681;BME280;18281;51.364;9.566;2022-07-23T09:25:09;100225.22;;;18.87;80.41
31681;BME280;18281;51.364;9.566;2022-07-23T09:27:54;100226.53;;;19.43;79.53
31681;BME280;18281;51.364;9.566;2022-07-23T09:30:23;100234.53;;;18.72;79.17
31681;BME280;18281;51.364;9.566;2022-07-23T09:35:52;100231.75;;;18.10;81.03
31681;BME280;18281;51.364;9.566;2022-07-23T09:38:19;100237.00;;;18.64;81.12
31681;BME280;18281;51.364;9.566;2022-07-23T09:40:46;100233.72;;;19.12;79.77
31681;BME280;18281;51.364;9.566;2022-07-23T09:43:14;100240.13;;;19.00;78.51
31681;BME280;18281;51.364;9.566;2022-07-23T09:45:52;100233.78;;;19.32;77.83
31681;BME280;18281;51.364;9.566;2022-07-23T09:48:17;100239.25;;;18.89;76.50
31681;BME280;18281;51.364;9.566;2022-07-23T09:50:44;100234.28;;;19.76;76.60
31681;BME280;18281;51.364;9.566;2022-07-23T09:53:23;100236.53;;;19.20;77.22
31681;BME280;18281;51.364;9.566;2022-07-23T09:55:49;100241.97;;;18.99;76.58
31681;BME280;18281;51.364;9.566;2022-07-23T09:58:17;100239.50;;;18.86;76.43
31681;BME280;18281;51.364;9.566;2022-07-23T10:00:47;100230.34;;;19.90;76.19
31681;BME280;18281;51.364;9.566;2022-07-23T10:03:14;100229.81;;;19.16;75.86
31681;BME280;18281;51.364;9.566;2022-07-23T10:05:41;100235.88;;;18.87;76.79
31681;BME280;18281;51.364;9.566;2022-07-23T10:08:11;100238.72;;;19.46;76.67
31681;BME280;18281;51.364;9.566;2022-07-23T10:10:39;100239.78;;;18.83;76.61
31681;BME280;18281;51.364;9.566;2022-07-23T10:13:05;100240.53;;;19.46;76.25
31681;BME280;18281;51.364;9.566;2022-07-23T10:15:50;100234.44;;;19.14;75.09
31681;BME280;18281;51.364;9.566;2022-07-23T10:18:15;100237.06;;;19.84;75.02
31681;BME280;18281;51.364;9.566;2022-07-23T10:20:41;100232.00;;;20.01;74.50
31681;BME280;18281;51.364;9.566;2022-07-23T10:31:03;100225.44;;;19.85;73.02
31681;BME280;18281;51.364;9.566;2022-07-23T10:33:54;100231.06;;;19.92;72.86
31681;BME280;18281;51.364;9.566;2022-07-23T10:36:51;100227.69;;;20.00;71.84
31681;BME280;18281;51.364;9.566;2022-07-23T10:41:50;100223.41;;;20.46;73.38
31681;BME280;18281;51.364;9.566;2022-07-23T10:44:21;100230.03;;;20.13;72.82
31681;BME280;18281;51.364;9.566;2022-07-23T10:46:56;100228.84;;;20.64;72.31
31681;BME280;18281;51.364;9.566;2022-07-23T10:49:42;100236.47;;;20.30;72.44
31681;BME280;18281;51.364;9.566;2022-07-23T10:54:44;100244.50;;;19.81;71.63
31681;BME280;18281;51.364;9.566;2022-07-23T10:57:11;100240.94;;;19.60;71.96
31681;BME280;18281;51.364;9.566;2022-07-23T11:02:31;100236.41;;;19.82;70.67
31681;BME280;18281;51.364;9.566;2022-07-23T11:05:03;100242.63;;;19.52;71.11
31681;BME280;18281;51.364;9.566;2022-07-23T11:07:29;100232.44;;;20.06;71.96
31681;BME280;18281;51.364;9.566;2022-07-23T11:09:54;100230.59;;;20.36;70.92
31681;BME280;18281;51.364;9.566;2022-07-23T11:15:09;100228.94;;;21.10;70.16
31681;BME280;18281;51.364;9.566;2022-07-23T11:17:36;100232.44;;;21.01;70.15
31681;BME280;18281;51.364;9.566;2022-07-23T11:25:08;100230.22;;;21.06;69.47
31681;BME280;18281;51.364;9.566;2022-07-23T11:27:44;100226.69;;;20.68;69.84
31681;BME280;18281;51.364;9.566;2022-07-23T11:30:56;100219.34;;;20.42;70.32
31681;BME280;18281;51.364;9.566;2022-07-23T11:35:42;100216.31;;;20.65;71.26
31681;BME280;18281;51.364;9.566;2022-07-23T11:38:19;100224.56;;;21.09;69.11
31681;BME280;18281;51.364;9.566;2022-07-23T11:40:47;100210.59;;;20.87;69.11
31681;BME280;18281;51.364;9.566;2022-07-23T11:43:13;100219.78;;;21.13;68.63
31681;BME280;18281;51.364;9.566;2022-07-23T11:45:43;100215.34;;;21.21;68.44
31681;BME280;18281;51.364;9.566;2022-07-23T11:48:16;100220.44;;;21.42;67.31
31681;BME280;18281;51.364;9.566;2022-07-23T11:50:42;100230.88;;;21.08;68.94
31681;BME280;18281;51.364;9.566;2022-07-23T11:53:08;100222.09;;;21.62;68.20
31681;BME280;18281;51.364;9.566;2022-07-23T11:55:33;100218.91;;;21.58;68.50
31681;BME280;18281;51.364;9.566;2022-07-23T11:57:59;100221.03;;;22.53;67.44
31681;BME280;18281;51.364;9.566;2022-07-23T12:00:27;100227.59;;;21.60;67.29
31681;BME280;18281;51.364;9.566;2022-07-23T12:02:56;100221.22;;;22.15;68.23
31681;BME280;18281;51.364;9.566;2022-07-23T12:05:25;100226.84;;;21.50;67.16
31681;BME280;18281;51.364;9.566;2022-07-23T12:07:52;100225.84;;;21.33;68.03
31681;BME280;18281;51.364;9.566;2022-07-23T12:10:19;100220.28;;;21.44;67.04
31681;BME280;18281;51.364;9.566;2022-07-23T12:12:49;100212.09;;;21.27;66.52
31681;BME280;18281;51.364;9.566;2022-07-23T12:15:18;100221.59;;;21.76;66.74
31681;BME280;18281;51.364;9.566;2022-07-23T12:17:45;100223.84;;;21.35;66.97
31681;BME280;18281;51.364;9.566;2022-07-23T12:20:23;100217.75;;;21.24;66.89
31681;BME280;18281;51.364;9.566;2022-07-23T12:22:52;100213.03;;;21.90;66.47
31681;BME280;18281;51.364;9.566;2022-07-23T12:25:19;100218.25;;;21.28;66.34
31681;BME280;18281;51.364;9.566;2022-07-23T12:27:46;100218.50;;;21.17;66.13
31681;BME280;18281;51.364;9.566;2022-07-23T12:30:23;100223.81;;;21.45;65.84
31681;BME280;18281;51.364;9.566;2022-07-23T12:32:52;100216.41;;;21.92;66.11
31681;BME280;18281;51.364;9.566;2022-07-23T12:35:18;100217.31;;;21.47;65.82
31681;BME280;18281;51.364;9.566;2022-07-23T12:37:45;100213.38;;;21.87;66.15
31681;BME280;18281;51.364;9.566;2022-07-23T12:40:32;100211.19;;;22.09;66.91
31681;BME280;18281;51.364;9.566;2022-07-23T12:43:03;100201.53;;;22.16;65.04
31681;BME280;18281;51.364;9.566;2022-07-23T12:48:28;100216.69;;;22.34;65.17
31681;BME280;18281;51.364;9.566;2022-07-23T12:55:48;100214.03;;;22.07;64.77
31681;BME280;18281;51.364;9.566;2022-07-23T12:58:19;100210.31;;;22.08;64.67
31681;BME280;18281;51.364;9.566;2022-07-23T13:00:53;100205.28;;;22.50;64.51
31681;BME280;18281;51.364;9.566;2022-07-23T13:03:35;100202.41;;;21.99;64.43
31681;BME280;18281;51.364;9.566;2022-07-23T13:06:02;100202.81;;;21.68;65.97
31681;BME280;18281;51.364;9.566;2022-07-23T13:08:29;100212.28;;;22.24;66.67
31681;BME280;18281;51.364;9.566;2022-07-23T13:10:56;100210.63;;;22.23;65.69
31681;BME280;18281;51.364;9.566;2022-07-23T13:13:23;100201.84;;;22.66;65.67
31681;BME280;18281;51.364;9.566;2022-07-23T13:15:50;100211.56;;;22.40;65.33
31681;BME280;18281;51.364;9.566;2022-07-23T13:18:15;100216.47;;;22.45;64.42
31681;BME280;18281;51.364;9.566;2022-07-23T13:20:43;100220.63;;;22.21;64.10